Time;durP1;ratioP1;P1;durP2;ratioP2;P2;SDS_P1;SDS_P2;PMS_P1;PMS_P2;Temp;Humidity;BMP_temperature;BMP_pressure;BME280_temperature;BME280_humidity;BME280_pressure;Samples;Min_cycle;Max_cycle;Signal;HPM_P1;HPM_P2
2021/09/02 00:02:17;;;;;;;573.50;516.67;;;;;;;-142.25;100.00;58004.16;5078939;28;20273;-57
2021/09/02 00:04:42;;;;;;;576.30;519.80;;;;;;;-142.25;100.00;58004.16;5079657;28;20111;-55
2021/09/02 00:07:08;;;;;;;561.67;505.23;;;;;;;-142.25;100.00;58004.16;5078944;28;20087;-56
2021/09/02 00:09:33;;;;;;;586.47;529.23;;;;;;;-142.25;100.00;58004.16;5080501;28;20037;-56
2021/09/02 00:12:01;;;;;;;585.17;528.10;;;;;;;-142.25;100.00;58004.16;5078855;28;20695;-54
2021/09/02 00:14:26;;;;;;;578.10;520.87;;;;;;;-142.25;100.00;58004.16;5080408;28;20051;-54
2021/09/02 00:16:52;;;;;;;597.30;538.80;;;;;;;-142.25;100.00;58004.16;5077399;28;20032;-56
2021/09/02 00:19:17;;;;;;;596.37;537.90;;;;;;;-142.25;100.00;58004.16;5081238;28;20021;-58
2021/09/02 00:21:43;;;;;;;579.47;522.07;;;;;;;-142.25;100.00;58004.16;5079956;28;20021;-57
2021/09/02 00:24:08;;;;;;;591.30;533.70;;;;;;;-142.25;100.00;58004.16;5064007;28;20059;-56
2021/09/02 00:26:33;;;;;;;594.00;536.17;;;;;;;-142.25;100.00;58004.16;5079884;28;20063;-55
2021/09/02 00:28:59;;;;;;;582.50;525.30;;;;;;;-142.25;100.00;58004.16;5063785;28;20043;-56
2021/09/02 00:31:24;;;;;;;605.67;547.20;;;;;;;-142.25;100.00;58004.16;5077616;28;20814;-57
2021/09/02 00:33:50;;;;;;;600.67;542.60;;;;;;;-142.25;100.00;58004.16;5079350;28;20075;-56
2021/09/02 00:36:15;;;;;;;592.23;534.40;;;;;;;-142.25;100.00;58004.16;5078412;28;20032;-57
2021/09/02 00:38:41;;;;;;;577.10;519.67;;;;;;;-142.25;100.00;58004.16;5078581;28;20036;-53
2021/09/02 00:41:06;;;;;;;589.07;531.53;;;;;;;-142.25;100.00;58004.16;5079463;28;20588;-57
2021/09/02 00:43:39;;;;;;;569.13;512.37;;;;;;;-142.25;100.00;58004.16;5062117;28;20024;-55
2021/09/02 00:46:06;;;;;;;567.63;510.70;;;;;;;-142.25;100.00;58004.16;5078719;28;20370;-56
2021/09/02 00:48:32;;;;;;;567.93;510.80;;;;;;;-142.25;100.00;58004.16;5078546;28;20024;-58
2021/09/02 00:50:57;;;;;;;579.37;521.63;;;;;;;-142.25;100.00;58004.16;5079263;28;20056;-57
2021/09/02 00:53:23;;;;;;;574.87;517.87;;;;;;;-142.25;100.00;58004.16;5077927;28;20056;-56
2021/09/02 00:55:49;;;;;;;573.07;516.07;;;;;;;-142.25;100.00;58004.16;5079292;28;20032;-57
2021/09/02 00:58:14;;;;;;;579.90;522.53;;;;;;;-142.25;100.00;58004.16;5077928;28;20361;-55
2021/09/02 01:00:40;;;;;;;587.70;530.40;;;;;;;-142.25;100.00;58004.16;5065371;28;20051;-57
2021/09/02 01:03:05;;;;;;;595.10;536.87;;;;;;;-142.25;100.00;58004.16;5078223;28;20060;-56
2021/09/02 01:05:31;;;;;;;592.47;534.97;;;;;;;-142.25;100.00;58004.16;5080179;28;20054;-55
2021/09/02 01:07:59;;;;;;;593.47;535.47;;;;;;;-142.25;100.00;58004.16;5078687;28;20060;-56
2021/09/02 01:10:24;;;;;;;591.20;533.73;;;;;;;-142.25;100.00;58004.16;5078371;28;20397;-57
2021/09/02 01:12:50;;;;;;;594.27;536.47;;;;;;;-142.25;100.00;58004.16;5078221;28;20024;-57
2021/09/02 01:15:24;;;;;;;582.70;525.90;;;;;;;-142.25;100.00;58004.16;5078885;28;20032;-57
2021/09/02 01:17:53;;;;;;;584.38;527.15;;;;;;;-142.25;100.00;58004.16;5079076;28;20365;-57
2021/09/02 01:20:21;;;;;;;596.33;538.93;;;;;;;-142.25;100.00;58004.16;5077486;28;20044;-57
2021/09/02 01:22:48;;;;;;;589.33;531.93;;;;;;;-142.25;100.00;58004.16;5079964;28;20043;-56
2021/09/02 01:25:16;;;;;;;586.73;529.73;;;;;;;-142.25;100.00;58004.16;5076042;28;20028;-57
2021/09/02 01:27:46;;;;;;;592.03;534.63;;;;;;;-142.25;100.00;58004.16;5079923;28;20046;-56
2021/09/02 01:30:13;;;;;;;587.63;530.50;;;;;;;-142.25;100.00;58004.16;5078702;28;20397;-57
2021/09/02 01:32:46;;;;;;;584.07;526.97;;;;;;;-142.25;100.00;58004.16;5076749;28;20123;-57
2021/09/02 01:35:12;;;;;;;588.50;531.60;;;;;;;-142.25;100.00;58004.16;5076888;28;20091;-57
2021/09/02 01:37:44;;;;;;;593.80;536.70;;;;;;;-142.25;100.00;58004.16;5078367;28;20067;-55
2021/09/02 01:40:16;;;;;;;598.13;540.90;;;;;;;-142.25;100.00;58004.16;5077058;28;20043;-56
2021/09/02 01:42:42;;;;;;;594.23;537.40;;;;;;;-142.25;100.00;58004.16;5079261;28;20020;-57
2021/09/02 01:45:09;;;;;;;598.67;541.47;;;;;;;-142.25;100.00;58004.16;5079460;28;20439;-56
2021/09/02 01:47:34;;;;;;;592.87;536.00;;;;;;;-142.25;100.00;58004.16;5075986;28;20024;-58
2021/09/02 01:50:10;;;;;;;592.10;535.13;;;;;;;-142.25;100.00;58004.16;5076902;28;20048;-58
2021/09/02 01:52:37;;;;;;;585.17;528.40;;;;;;;-142.25;100.00;58004.16;5075916;28;20029;-58
2021/09/02 01:55:05;;;;;;;584.27;527.80;;;;;;;-142.25;100.00;58004.16;5079923;28;20036;-56
2021/09/02 01:57:30;;;;;;;586.80;529.97;;;;;;;-142.25;100.00;58004.16;5082720;28;20077;-57
2021/09/02 01:59:56;;;;;;;575.97;519.70;;;;;;;-142.25;100.00;58004.16;5082680;28;20064;-55
2021/09/02 02:02:22;;;;;;;577.07;520.57;;;;;;;-142.25;100.00;58004.16;5083417;28;20106;-57
2021/09/02 02:04:47;;;;;;;572.53;516.30;;;;;;;-142.25;100.00;58004.16;5079279;28;20032;-55
2021/09/02 02:07:13;;;;;;;564.20;508.03;;;;;;;-142.25;100.00;58004.16;5083045;28;20039;-57
2021/09/02 02:09:38;;;;;;;587.23;530.07;;;;;;;-142.25;100.00;58004.16;5080912;28;20051;-58
2021/09/02 02:12:04;;;;;;;589.80;532.90;;;;;;;-142.25;100.00;58004.16;5079356;28;20047;-55
2021/09/02 02:14:30;;;;;;;577.70;521.07;;;;;;;-142.25;100.00;58004.16;5080590;28;20028;-55
2021/09/02 02:16:55;;;;;;;592.53;535.57;;;;;;;-142.25;100.00;58004.16;5079607;28;20081;-58
2021/09/02 02:19:20;;;;;;;578.60;521.83;;;;;;;-142.25;100.00;58004.16;5082786;28;20027;-58
2021/09/02 02:21:46;;;;;;;585.87;529.27;;;;;;;-142.25;100.00;58004.16;5083450;28;20027;-56
2021/09/02 02:24:11;;;;;;;574.63;517.67;;;;;;;-142.25;100.00;58004.16;5080690;28;20483;-56
2021/09/02 02:26:37;;;;;;;574.57;518.20;;;;;;;-142.25;100.00;58004.16;5080798;28;20031;-56
2021/09/02 02:29:03;;;;;;;578.97;522.30;;;;;;;-142.25;100.00;58004.16;5081535;28;20032;-57
2021/09/02 02:31:28;;;;;;;570.43;513.80;;;;;;;-142.25;100.00;58004.16;5081621;28;20043;-55
2021/09/02 02:33:54;;;;;;;564.87;508.93;;;;;;;-142.25;100.00;58004.16;5081033;28;20287;-54
2021/09/02 02:36:19;;;;;;;572.87;516.30;;;;;;;-142.25;100.00;58004.16;5079469;28;20032;-58
2021/09/02 02:38:45;;;;;;;572.93;516.63;;;;;;;-142.25;100.00;58004.16;5081333;28;20077;-53
2021/09/02 02:41:10;;;;;;;557.97;501.87;;;;;;;-142.25;100.00;58004.16;5081657;28;20024;-58
2021/09/02 02:43:36;;;;;;;553.83;498.30;;;;;;;-142.25;100.00;58004.16;5063805;28;20454;-55
2021/09/02 02:46:01;;;;;;;566.93;510.97;;;;;;;-142.25;100.00;58004.16;5079512;28;20355;-58
2021/09/02 02:48:27;;;;;;;567.90;512.03;;;;;;;-142.25;100.00;58004.16;5082398;28;20032;-57
2021/09/02 02:50:52;;;;;;;555.23;499.57;;;;;;;-142.25;100.00;58004.16;5080819;28;20747;-56
2021/09/02 02:53:17;;;;;;;545.73;490.33;;;;;;;-142.25;100.00;58004.16;5080116;28;20032;-57
2021/09/02 02:55:43;;;;;;;542.13;486.43;;;;;;;-142.25;100.00;58004.16;5079857;28;20024;-57
2021/09/02 02:58:08;;;;;;;543.47;487.93;;;;;;;-142.25;100.00;58004.16;5080671;28;20032;-54
2021/09/02 03:00:34;;;;;;;565.70;509.53;;;;;;;-142.25;100.00;58004.16;5079354;28;20668;-58
2021/09/02 03:02:59;;;;;;;537.10;481.80;;;;;;;-142.25;100.00;58004.16;5076799;28;20039;-55
2021/09/02 03:05:25;;;;;;;540.87;485.43;;;;;;;-142.25;100.00;58004.16;5081655;28;20031;-57
2021/09/02 03:07:50;;;;;;;545.50;489.40;;;;;;;-142.25;100.00;58004.16;5081322;28;20024;-58
2021/09/02 03:10:16;;;;;;;541.73;486.63;;;;;;;-142.25;100.00;58004.16;5082291;28;20086;-58
2021/09/02 03:12:41;;;;;;;542.43;486.23;;;;;;;-142.25;100.00;58004.16;5078742;28;20028;-58
2021/09/02 03:15:08;;;;;;;545.43;489.43;;;;;;;-142.25;100.00;58004.16;5077582;28;20024;-56
2021/09/02 03:17:34;;;;;;;531.27;475.57;;;;;;;-142.25;100.00;58004.16;5079763;28;20028;-56
2021/09/02 03:20:00;;;;;;;528.27;473.33;;;;;;;-142.25;100.00;58004.16;5078774;28;20126;-58
2021/09/02 03:22:25;;;;;;;532.63;477.27;;;;;;;-142.25;100.00;58004.16;5081104;28;20103;-57
2021/09/02 03:24:50;;;;;;;547.23;491.40;;;;;;;-142.25;100.00;58004.16;5079646;28;20432;-58
2021/09/02 03:27:16;;;;;;;531.73;476.77;;;;;;;-142.25;100.00;58004.16;5080605;28;20036;-55
2021/09/02 03:29:42;;;;;;;543.77;487.87;;;;;;;-142.25;100.00;58004.16;5080939;28;20397;-57
2021/09/02 03:32:07;;;;;;;546.40;490.53;;;;;;;-142.25;100.00;58004.16;5079457;28;20035;-57
2021/09/02 03:34:33;;;;;;;550.93;495.03;;;;;;;-142.25;100.00;58004.16;5078901;28;20348;-57
2021/09/02 03:36:58;;;;;;;540.93;485.23;;;;;;;-142.25;100.00;58004.16;5079460;28;20064;-56
2021/09/02 03:39:23;;;;;;;544.50;488.80;;;;;;;-142.25;100.00;58004.16;5079284;28;20352;-56
2021/09/02 03:41:49;;;;;;;551.63;495.93;;;;;;;-142.25;100.00;58004.16;5080481;28;20062;-57
2021/09/02 03:44:15;;;;;;;555.33;499.43;;;;;;;-142.25;100.00;58004.16;5080133;28;20029;-54
2021/09/02 03:46:40;;;;;;;547.67;491.87;;;;;;;-142.25;100.00;58004.16;5079280;28;20039;-58
2021/09/02 03:49:06;;;;;;;545.30;489.47;;;;;;;-142.25;100.00;58004.16;5081454;28;20114;-58
2021/09/02 03:51:32;;;;;;;546.63;490.87;;;;;;;-142.25;100.00;58004.16;5071978;28;20024;-58
2021/09/02 03:53:57;;;;;;;553.47;497.07;;;;;;;-142.25;100.00;58004.16;5071951;28;20031;-58
2021/09/02 03:56:22;;;;;;;554.13;498.13;;;;;;;-142.25;100.00;58004.16;5080636;28;20123;-58
2021/09/02 03:58:49;;;;;;;552.13;496.13;;;;;;;-142.25;100.00;58004.16;5078278;28;20776;-58
2021/09/02 04:01:14;;;;;;;552.43;496.53;;;;;;;-142.25;100.00;58004.16;5077817;28;20551;-58
2021/09/02 04:03:40;;;;;;;563.50;507.20;;;;;;;-142.25;100.00;58004.16;5080554;28;20123;-58
2021/09/02 04:06:05;;;;;;;563.60;506.33;;;;;;;-142.25;100.00;58004.16;5080125;28;20399;-55
2021/09/02 04:08:31;;;;;;;568.27;511.77;;;;;;;-142.25;100.00;58004.16;5077099;28;20028;-58
2021/09/02 04:10:56;;;;;;;575.83;518.70;;;;;;;-142.25;100.00;58004.16;5078012;28;20028;-54
2021/09/02 04:13:21;;;;;;;566.33;509.33;;;;;;;-142.25;100.00;58004.16;5079972;28;20424;-58
2021/09/02 04:15:47;;;;;;;571.50;514.90;;;;;;;-142.25;100.00;58004.16;5081392;28;20020;-58
2021/09/02 04:18:12;;;;;;;561.93;505.83;;;;;;;-142.25;100.00;58004.16;5077994;28;20281;-57
2021/09/02 04:20:38;;;;;;;565.33;509.07;;;;;;;-142.25;100.00;58004.16;5078403;28;20475;-58
2021/09/02 04:23:03;;;;;;;559.40;502.80;;;;;;;-142.25;100.00;58004.16;5078680;28;20032;-58
2021/09/02 04:25:29;;;;;;;557.40;501.17;;;;;;;-142.25;100.00;58004.16;5079515;28;20036;-58
2021/09/02 04:27:54;;;;;;;566.27;509.80;;;;;;;-142.25;100.00;58004.16;5079936;28;20469;-57
2021/09/02 04:30:20;;;;;;;553.60;497.57;;;;;;;-142.25;100.00;58004.16;5079474;28;20085;-56
2021/09/02 04:32:45;;;;;;;560.17;504.20;;;;;;;-142.25;100.00;58004.16;5059293;28;20218;-58
2021/09/02 04:35:12;;;;;;;540.93;485.20;;;;;;;-142.25;100.00;58004.16;5071048;28;20048;-57
2021/09/02 04:37:39;;;;;;;547.43;491.60;;;;;;;-142.25;100.00;58004.16;5061838;28;20077;-58
2021/09/02 04:40:06;;;;;;;541.00;485.33;;;;;;;-142.25;100.00;58004.16;5071435;28;20450;-58
2021/09/02 04:42:31;;;;;;;538.33;482.63;;;;;;;-142.25;100.00;58004.16;5078396;28;20034;-56
2021/09/02 04:44:57;;;;;;;554.50;498.27;;;;;;;-142.25;100.00;58004.16;5060352;28;20028;-57
2021/09/02 04:47:22;;;;;;;542.53;486.73;;;;;;;-142.25;100.00;58004.16;5065702;28;20029;-58
2021/09/02 04:49:48;;;;;;;540.50;484.90;;;;;;;-142.25;100.00;58004.16;5078433;28;20080;-58
2021/09/02 04:52:13;;;;;;;547.20;491.13;;;;;;;-142.25;100.00;58004.16;5075854;28;20028;-58
2021/09/02 04:54:39;;;;;;;549.87;493.87;;;;;;;-142.25;100.00;58004.16;5078428;28;20032;-57
2021/09/02 04:57:04;;;;;;;556.47;499.83;;;;;;;-142.25;100.00;58004.16;5078485;28;20112;-59
2021/09/02 04:59:30;;;;;;;550.87;494.83;;;;;;;-142.25;100.00;58004.16;5077944;28;20039;-59
2021/09/02 05:01:55;;;;;;;570.83;513.50;;;;;;;-142.25;100.00;58004.16;5079264;28;20024;-59
2021/09/02 05:04:21;;;;;;;564.80;508.07;;;;;;;-142.25;100.00;58004.16;5079004;28;20039;-55
2021/09/02 05:06:46;;;;;;;580.20;523.23;;;;;;;-142.25;100.00;58004.16;5078349;28;20037;-58
2021/09/02 05:09:11;;;;;;;567.03;510.70;;;;;;;-142.25;100.00;58004.16;5077798;28;20079;-57
2021/09/02 05:11:37;;;;;;;579.00;522.07;;;;;;;-142.25;100.00;58004.16;5077869;28;20028;-58
2021/09/02 05:14:02;;;;;;;578.03;520.80;;;;;;;-142.25;100.00;58004.16;5078708;28;20030;-56
2021/09/02 05:16:27;;;;;;;575.27;518.43;;;;;;;-142.25;100.00;58004.16;5059640;28;20031;-57
2021/09/02 05:18:53;;;;;;;584.37;527.20;;;;;;;-142.25;100.00;58004.16;5076519;28;20033;-54
2021/09/02 05:21:18;;;;;;;590.83;533.57;;;;;;;-142.25;100.00;58004.16;5079171;28;20028;-57
2021/09/02 05:23:44;;;;;;;583.27;526.40;;;;;;;-142.25;100.00;58004.16;5078572;28;20373;-56
2021/09/02 05:26:09;;;;;;;591.97;534.93;;;;;;;-142.25;100.00;58004.16;5078655;28;20115;-56
2021/09/02 05:28:35;;;;;;;615.53;557.43;;;;;;;-142.25;100.00;58004.16;5079515;28;20135;-56
2021/09/02 05:31:00;;;;;;;620.57;562.20;;;;;;;-142.25;100.00;58004.16;5077362;28;20029;-52
2021/09/02 05:33:25;;;;;;;627.30;569.13;;;;;;;-142.25;100.00;58004.16;5078229;28;20122;-55
2021/09/02 05:35:51;;;;;;;639.33;580.67;;;;;;;-142.25;100.00;58004.16;5077645;28;20053;-58
2021/09/02 05:38:16;;;;;;;625.00;566.30;;;;;;;-142.25;100.00;58004.16;5079443;28;20032;-55
2021/09/02 05:40:42;;;;;;;642.40;583.47;;;;;;;-142.25;100.00;58004.16;5078906;28;20352;-57
2021/09/02 05:43:07;;;;;;;644.77;585.90;;;;;;;-142.25;100.00;58004.16;5077501;28;20031;-55
2021/09/02 05:45:33;;;;;;;642.13;583.70;;;;;;;-142.25;100.00;58004.16;5078562;28;20368;-57
2021/09/02 05:47:58;;;;;;;640.70;581.90;;;;;;;-142.25;100.00;58004.16;5076725;28;20040;-54
2021/09/02 05:50:24;;;;;;;641.53;583.13;;;;;;;-142.25;100.00;58004.16;5077878;28;20649;-57
2021/09/02 05:52:49;;;;;;;658.20;599.53;;;;;;;-142.25;100.00;58004.16;5078900;28;20032;-57
2021/09/02 05:55:14;;;;;;;663.93;604.97;;;;;;;-142.25;100.00;58004.16;5077816;28;20352;-56
2021/09/02 05:57:41;;;;;;;671.73;612.23;;;;;;;-142.25;100.00;58004.16;5057987;28;20027;-53
2021/09/02 06:00:07;;;;;;;711.72;650.42;;;;;;;-142.25;100.00;58004.16;5060067;28;20119;-56
2021/09/02 06:02:33;;;;;;;11.93;7.22;;;;;;;-142.25;100.00;58004.16;5078199;28;20091;-56
2021/09/02 06:04:58;;;;;;;12.23;9.00;;;;;;;-142.25;100.00;58004.16;5079267;28;20085;-54
2021/09/02 06:07:23;;;;;;;13.75;8.75;;;;;;;-142.25;100.00;58004.16;5078052;28;20028;-57
2021/09/02 06:09:49;;;;;;;13.48;9.27;;;;;;;-142.25;100.00;58004.16;5076386;28;20100;-54
2021/09/02 06:12:14;;;;;;;16.67;10.10;;;;;;;-142.25;100.00;58004.16;5076587;28;20066;-57
2021/09/02 06:14:39;;;;;;;13.77;9.30;;;;;;;-142.25;100.00;58004.16;5079074;28;20262;-58
2021/09/02 06:17:05;;;;;;;20.55;10.35;;;;;;;-142.25;100.00;58004.16;5076447;28;20352;-59
2021/09/02 06:19:30;;;;;;;17.52;10.60;;;;;;;-142.25;100.00;58004.16;5074871;28;20025;-56
2021/09/02 06:21:56;;;;;;;25.20;16.90;;;;;;;-142.25;100.00;58004.16;5078063;28;20024;-54
2021/09/02 06:24:21;;;;;;;14.80;9.70;;;;;;;-142.25;100.00;58004.16;5078769;28;20042;-57
2021/09/02 06:26:47;;;;;;;20.63;11.20;;;;;;;-142.25;100.00;58004.16;5078371;28;20032;-56
2021/09/02 06:29:12;;;;;;;18.15;11.07;;;;;;;-142.25;100.00;58004.16;5076480;28;20028;-54
2021/09/02 06:31:37;;;;;;;9.95;8.35;;;;;;;-142.25;100.00;58004.16;5078938;28;20087;-58
2021/09/02 06:34:03;;;;;;;12.35;7.75;;;;;;;-142.25;100.00;58004.16;5080383;28;20077;-59
2021/09/02 06:36:28;;;;;;;8.48;7.18;;;;;;;-142.25;100.00;58004.16;5077632;28;20047;-56
2021/09/02 06:38:54;;;;;;;9.80;7.68;;;;;;;-142.25;100.00;58004.16;5079107;28;20109;-56
2021/09/02 06:41:19;;;;;;;7.22;6.53;;;;;;;-142.25;100.00;58004.16;5081551;28;20033;-58
2021/09/02 06:43:45;;;;;;;8.80;6.13;;;;;;;-142.25;100.00;58004.16;5081581;28;20036;-57
2021/09/02 06:46:10;;;;;;;7.05;6.22;;;;;;;-142.25;100.00;58004.16;5083874;28;20028;-58
2021/09/02 06:48:35;;;;;;;9.95;6.90;;;;;;;-142.25;100.00;58004.16;5080668;28;20028;-58
2021/09/02 06:51:01;;;;;;;9.38;6.20;;;;;;;-142.25;100.00;58004.16;5081532;28;20074;-58
2021/09/02 06:53:26;;;;;;;7.47;6.25;;;;;;;-142.25;100.00;58004.16;5081459;28;20020;-58
2021/09/02 06:55:51;;;;;;;7.50;5.88;;;;;;;-142.25;100.00;58004.16;5081947;28;20028;-57
2021/09/02 06:58:17;;;;;;;7.20;5.97;;;;;;;-142.25;100.00;58004.16;5081626;28;20036;-58
2021/09/02 07:00:42;;;;;;;6.97;5.82;;;;;;;-142.25;100.00;58004.16;5082357;28;20024;-54
2021/09/02 07:03:08;;;;;;;6.63;5.82;;;;;;;-142.25;100.00;58004.16;5082306;28;20036;-55
2021/09/02 07:05:33;;;;;;;6.45;5.85;;;;;;;-142.25;100.00;58004.16;5083989;28;20030;-57
2021/09/02 07:07:59;;;;;;;5.63;5.10;;;;;;;-142.25;100.00;58004.16;5081856;28;20133;-58
2021/09/02 07:10:24;;;;;;;8.52;5.85;;;;;;;-142.25;100.00;58004.16;5082334;28;20097;-58
2021/09/02 07:12:49;;;;;;;7.60;6.15;;;;;;;-142.25;100.00;58004.16;5081098;28;20027;-57
2021/09/02 07:15:16;;;;;;;5.93;5.43;;;;;;;-142.25;100.00;58004.16;5080827;28;20039;-58
2021/09/02 07:17:41;;;;;;;6.75;5.85;;;;;;;-142.25;100.00;58004.16;5078350;28;20031;-60
2021/09/02 07:20:07;;;;;;;6.45;5.40;;;;;;;-142.25;100.00;58004.16;5084976;28;20414;-58
2021/09/02 07:22:33;;;;;;;6.72;5.65;;;;;;;-142.25;100.00;58004.16;5080241;28;20036;-58
2021/09/02 07:24:58;;;;;;;14.77;5.63;;;;;;;-142.25;100.00;58004.16;5082094;28;20028;-58
2021/09/02 07:27:24;;;;;;;7.65;5.45;;;;;;;-142.25;100.00;58004.16;5082045;28;20103;-57
2021/09/02 07:29:49;;;;;;;5.95;4.95;;;;;;;-142.25;100.00;58004.16;5083957;28;20064;-58
2021/09/02 07:32:15;;;;;;;7.57;4.70;;;;;;;-142.25;100.00;58004.16;5080365;28;20128;-56
2021/09/02 07:34:40;;;;;;;4.70;4.22;;;;;;;-142.25;100.00;58004.16;5081861;28;20103;-57
2021/09/02 07:37:06;;;;;;;7.18;4.68;;;;;;;-142.25;100.00;58004.16;5080402;28;20063;-56
2021/09/02 07:39:31;;;;;;;4.25;3.92;;;;;;;-142.25;100.00;58004.16;5077774;28;20051;-58
2021/09/02 07:41:57;;;;;;;4.57;4.15;;;;;;;-142.25;100.00;58004.16;5080545;28;20024;-57
2021/09/02 07:44:22;;;;;;;5.68;5.07;;;;;;;-142.25;100.00;58004.16;5080299;28;20547;-55
2021/09/02 07:46:47;;;;;;;5.03;4.55;;;;;;;-142.25;100.00;58004.16;5079445;28;20028;-56
2021/09/02 07:49:13;;;;;;;5.97;4.40;;;;;;;-142.25;100.00;58004.16;5080602;28;20292;-56
2021/09/02 07:51:41;;;;;;;4.90;4.45;;;;;;;-142.25;100.00;58004.16;5079395;28;20343;-57
2021/09/02 07:54:06;;;;;;;4.03;3.63;;;;;;;-142.25;100.00;58004.16;5080030;28;20135;-56
2021/09/02 07:56:32;;;;;;;5.93;5.32;;;;;;;-142.25;100.00;58004.16;5080831;28;20115;-55
2021/09/02 07:58:57;;;;;;;8.43;6.20;;;;;;;-142.25;100.00;58004.16;5081269;28;20417;-57
2021/09/02 08:01:22;;;;;;;4.82;3.97;;;;;;;-142.25;100.00;58004.16;5080002;28;20111;-56
2021/09/02 08:03:49;;;;;;;5.18;4.72;;;;;;;-142.25;100.00;58004.16;5061335;28;20079;-56
2021/09/02 08:06:15;;;;;;;5.57;4.55;;;;;;;-142.25;100.00;58004.16;5082828;28;20027;-57
2021/09/02 08:08:40;;;;;;;5.65;4.72;;;;;;;-142.25;100.00;58004.16;5079808;28;20032;-56
2021/09/02 08:11:05;;;;;;;5.03;4.55;;;;;;;-142.25;100.00;58004.16;5080495;28;20425;-56
2021/09/02 08:13:32;;;;;;;4.80;4.22;;;;;;;-142.25;100.00;58004.16;5079567;28;20601;-56
2021/09/02 08:15:57;;;;;;;6.18;4.72;;;;;;;-142.25;100.00;58004.16;5077749;28;20071;-58
2021/09/02 08:18:23;;;;;;;5.45;4.63;;;;;;;-142.25;100.00;58004.16;5078415;28;20060;-57
2021/09/02 08:20:48;;;;;;;6.20;4.60;;;;;;;-142.25;100.00;58004.16;5080677;28;20024;-57
2021/09/02 08:23:14;;;;;;;5.07;4.35;;;;;;;-142.25;100.00;58004.16;5080639;28;20038;-58
2021/09/02 08:25:39;;;;;;;6.13;4.30;;;;;;;-142.25;100.00;58004.16;5078502;28;20032;-57
2021/09/02 08:28:05;;;;;;;4.68;4.28;;;;;;;-142.25;100.00;58004.16;5079205;28;20028;-55
2021/09/02 08:30:30;;;;;;;5.45;4.82;;;;;;;-142.25;100.00;58004.16;5080126;28;20086;-57
2021/09/02 08:32:57;;;;;;;6.10;4.72;;;;;;;-142.25;100.00;58004.16;5080554;28;20035;-56
2021/09/02 08:35:25;;;;;;;5.43;4.70;;;;;;;-142.25;100.00;58004.16;5079528;28;20060;-58
2021/09/02 08:37:52;;;;;;;5.47;4.68;;;;;;;-142.25;100.00;58004.16;5079360;28;20034;-57
2021/09/02 08:40:21;;;;;;;4.32;3.92;;;;;;;-142.25;100.00;58004.16;5079279;28;20033;-57
2021/09/02 08:42:47;;;;;;;5.70;4.28;;;;;;;-142.25;100.00;58004.16;5079875;28;20308;-57
2021/09/02 08:45:13;;;;;;;6.78;4.22;;;;;;;-142.25;100.00;58004.16;5080499;28;20046;-56
2021/09/02 08:47:43;;;;;;;5.15;4.65;;;;;;;-142.25;100.00;58004.16;5076558;28;20249;-57
2021/09/02 08:50:09;;;;;;;4.95;4.45;;;;;;;-142.25;100.00;58004.16;5079227;28;20036;-56
2021/09/02 08:52:34;;;;;;;4.63;4.22;;;;;;;-142.25;100.00;58004.16;5077878;28;20634;-58
2021/09/02 08:55:03;;;;;;;4.80;4.25;;;;;;;-142.25;100.00;58004.16;5078864;28;20032;-57
2021/09/02 08:57:28;;;;;;;4.57;4.18;;;;;;;-142.25;100.00;58004.16;5076320;28;20024;-54
2021/09/02 08:59:54;;;;;;;4.57;4.15;;;;;;;-142.25;100.00;58004.16;5080360;28;20039;-58
2021/09/02 09:02:25;;;;;;;4.90;4.40;;;;;;;-142.25;100.00;58004.16;5078115;28;20029;-58
2021/09/02 09:05:11;;;;;;;5.00;4.50;;;;;;;-142.25;100.00;58004.16;5080824;28;20032;-55
2021/09/02 09:07:39;;;;;;;7.35;4.55;;;;;;;-142.25;100.00;58004.16;5061421;28;20147;-57
2021/09/02 09:10:26;;;;;;;4.93;4.45;;;;;;;-142.25;100.00;58004.16;5078904;28;20027;-57
2021/09/02 09:13:05;;;;;;;5.47;4.53;;;;;;;-142.25;100.00;58004.16;5077469;28;20052;-64
2021/09/02 09:15:49;;;;;;;5.43;4.28;;;;;;;-142.25;100.00;58004.16;5080355;28;20073;-64
2021/09/02 09:18:23;;;;;;;5.38;4.53;;;;;;;-142.25;100.00;58004.16;5077399;28;20038;-66
2021/09/02 09:21:11;;;;;;;6.25;4.15;;;;;;;-142.25;100.00;58004.16;5060969;28;20399;-64
2021/09/02 09:23:58;;;;;;;5.70;4.05;;;;;;;-142.25;100.00;58004.16;5078970;28;20028;-63
2021/09/02 09:26:26;;;;;;;6.20;4.90;;;;;;;-142.25;100.00;58004.16;5077931;28;20036;-63
2021/09/02 09:28:55;;;;;;;6.30;5.10;;;;;;;-142.25;100.00;58004.16;5079357;28;20089;-64
2021/09/02 09:31:36;;;;;;;5.22;4.72;;;;;;;-142.25;100.00;58004.16;5078799;28;20035;-64
2021/09/02 09:34:07;;;;;;;5.53;4.90;;;;;;;-142.25;100.00;58004.16;5065142;28;20074;-64
2021/09/02 09:36:35;;;;;;;6.53;4.88;;;;;;;-142.25;100.00;58004.16;5078567;28;20025;-64
2021/09/02 09:39:11;;;;;;;6.15;4.47;;;;;;;-142.25;100.00;58004.16;5070152;28;20365;-63
2021/09/02 09:41:44;;;;;;;6.03;4.25;;;;;;;-142.25;100.00;58004.16;5078535;28;20034;-63
2021/09/02 09:44:24;;;;;;;5.40;4.47;;;;;;;-142.25;100.00;58004.16;5078721;28;20396;-63
2021/09/02 09:47:02;;;;;;;5.22;4.20;;;;;;;-142.25;100.00;58004.16;5081319;28;20372;-63
2021/09/02 09:49:44;;;;;;;4.93;4.53;;;;;;;-142.25;100.00;58004.16;5080315;28;20113;-64
2021/09/02 09:52:22;;;;;;;4.82;4.32;;;;;;;-142.25;100.00;58004.16;5081810;28;20036;-64
2021/09/02 09:54:48;;;;;;;4.00;3.60;;;;;;;-142.25;100.00;58004.16;5080871;28;20028;-64
2021/09/02 09:57:14;;;;;;;4.60;4.13;;;;;;;-142.25;100.00;58004.16;5061289;28;20032;-64
2021/09/02 09:59:44;;;;;;;5.75;3.85;;;;;;;-142.25;100.00;58004.16;5080295;28;20024;-65
2021/09/02 10:02:10;;;;;;;4.10;3.17;;;;;;;-142.25;100.00;58004.16;5078120;28;20366;-63
2021/09/02 10:04:37;;;;;;;5.07;4.05;;;;;;;-142.25;100.00;58004.16;5077944;28;20353;-66
2021/09/02 10:07:04;;;;;;;7.85;4.20;;;;;;;-142.25;100.00;58004.16;5077060;28;20027;-66
2021/09/02 10:09:32;;;;;;;5.78;4.82;;;;;;;-142.25;100.00;58004.16;5079748;28;20081;-65
2021/09/02 10:12:01;;;;;;;4.32;3.92;;;;;;;-142.25;100.00;58004.16;5079483;28;20669;-64
2021/09/02 10:14:27;;;;;;;4.97;4.20;;;;;;;-142.25;100.00;58004.16;5079704;28;20071;-63
2021/09/02 10:16:52;;;;;;;5.22;4.00;;;;;;;-142.25;100.00;58004.16;5082560;28;20060;-63
2021/09/02 10:19:18;;;;;;;3.90;3.58;;;;;;;-142.25;100.00;58004.16;5082839;28;20033;-63
2021/09/02 10:21:44;;;;;;;4.68;3.92;;;;;;;-142.25;100.00;58004.16;5081839;28;20024;-63
2021/09/02 10:24:30;;;;;;;4.93;4.22;;;;;;;-142.25;100.00;58004.16;5067180;28;20062;-64
2021/09/02 10:26:55;;;;;;;;;;;;;;;-142.25;100.00;58004.16;5080548;28;20021;-64
2021/09/02 10:29:35;;;;;;;6.05;4.65;;;;;;;-142.25;100.00;58004.16;5079964;28;19923;-64
2021/09/02 10:32:22;;;;;;;4.53;4.13;;;;;;;-142.25;100.00;58004.16;5079694;28;20040;-64
2021/09/02 10:34:51;;;;;;;4.18;3.78;;;;;;;-142.25;100.00;58004.16;5082339;28;20060;-64
2021/09/02 10:37:35;;;;;;;4.18;3.78;;;;;;;-142.25;100.00;58004.16;5081765;28;20037;-64
2021/09/02 10:40:04;;;;;;;5.32;4.82;;;;;;;-142.25;100.00;58004.16;5080517;28;20056;-64
2021/09/02 10:42:52;;;;;;;5.05;4.55;;;;;;;-142.25;100.00;58004.16;5081337;28;20082;-64
2021/09/02 10:45:30;;;;;;;4.88;4.32;;;;;;;-142.25;100.00;58004.16;5083491;28;20039;-64
2021/09/02 10:48:07;;;;;;;4.65;4.20;;;;;;;-142.25;100.00;58004.16;5063169;28;20374;-64
2021/09/02 10:50:37;;;;;;;7.57;4.47;;;;;;;-142.25;100.00;58004.16;5079969;28;20298;-64
2021/09/02 10:53:17;;;;;;;4.47;4.07;;;;;;;-142.25;100.00;58004.16;5081802;28;20063;-64